Time;durP1;ratioP1;P1;durP2;ratioP2;P2;SDS_P1;SDS_P2;PMS_P1;PMS_P2;Temp;Humidity;BMP_temperature;BMP_pressure;BME280_temperature;BME280_humidity;BME280_pressure;Samples;Min_cycle;Max_cycle;Signal;HPM_P1;HPM_P2
2023/03/22 00:01:21;;;;;;;7.80;2.75;;;;;;;14.12;42.49;99484.19;4421284;32;33855;-62
2023/03/22 00:03:51;;;;;;;3.85;2.87;;;;;;;14.07;42.65;99487.31;4421855;32;33212;-61
2023/03/22 00:06:19;;;;;;;6.40;2.87;;;;;;;14.19;42.35;99486.19;4419713;32;33762;-64
2023/03/22 00:08:50;;;;;;;7.57;4.05;;;;;;;14.08;42.57;99486.31;4419875;32;35529;-62
2023/03/22 00:11:20;;;;;;;4.80;2.87;;;;;;;14.18;42.39;99481.75;4422081;32;34973;-61
2023/03/22 00:13:51;;;;;;;7.45;2.85;;;;;;;14.27;42.38;99487.28;4418143;32;34579;-61
2023/03/22 00:16:20;;;;;;;20.88;3.45;;;;;;;14.35;42.07;99484.72;4418042;32;32218;-63
2023/03/22 00:18:48;;;;;;;6.65;3.47;;;;;;;14.41;41.54;99479.62;4416326;32;34048;-63
2023/03/22 00:21:16;;;;;;;3.92;2.95;;;;;;;14.38;41.36;99477.22;4419768;32;35384;-61
2023/03/22 00:23:44;;;;;;;3.55;2.80;;;;;;;14.26;41.54;99475.69;4418603;32;32039;-64
2023/03/22 00:26:13;;;;;;;8.25;3.40;;;;;;;14.28;41.49;99479.06;4417829;32;33789;-63
2023/03/22 00:28:41;;;;;;;8.15;3.33;;;;;;;14.14;41.87;99476.84;4418794;32;35056;-61
2023/03/22 00:31:09;;;;;;;7.18;3.28;;;;;;;14.10;41.74;99478.13;4419454;32;35014;-64
2023/03/22 00:33:37;;;;;;;2.62;2.17;;;;;;;14.12;41.58;99470.72;4418752;32;33240;-63
2023/03/22 00:36:09;;;;;;;10.60;2.92;;;;;;;13.88;42.47;99477.41;4417453;32;34950;-61
2023/03/22 00:38:38;;;;;;;5.10;3.80;;;;;;;13.68;42.68;99475.72;4419538;32;34082;-66
2023/03/22 00:41:21;;;;;;;3.08;2.78;;;;;;;13.76;42.30;99473.16;4418712;32;32514;-62
2023/03/22 00:43:50;;;;;;;6.62;3.45;;;;;;;13.69;42.39;99477.41;4418804;32;33378;-62
2023/03/22 00:46:19;;;;;;;3.33;2.50;;;;;;;13.68;42.09;99470.34;4417487;32;32820;-62
2023/03/22 00:48:47;;;;;;;5.28;3.12;;;;;;;13.58;42.10;99470.34;4417207;32;33968;-62
2023/03/22 00:51:16;;;;;;;3.40;1.85;;;;;;;13.52;42.21;99465.53;4418423;32;33799;-61
2023/03/22 00:53:43;;;;;;;4.00;3.03;;;;;;;13.52;42.29;99471.75;4419830;32;33385;-61
2023/03/22 00:56:14;;;;;;;3.47;3.10;;;;;;;12.78;44.21;99480.16;4417475;32;33630;-61
2023/03/22 00:58:42;;;;;;;1.98;1.50;;;;;;;12.95;43.81;99481.34;4413546;32;34740;-63
2023/03/22 01:01:13;;;;;;;3.67;2.30;;;;;;;12.78;44.72;99476.63;4400651;32;34004;-61
2023/03/22 01:03:42;;;;;;;4.53;2.60;;;;;;;11.97;46.54;99481.81;4419598;32;34379;-62
2023/03/22 01:06:12;;;;;;;6.47;5.28;;;;;;;12.24;46.11;99467.87;4415735;32;33757;-61
2023/03/22 01:08:40;;;;;;;5.65;3.60;;;;;;;12.74;45.14;99467.13;4412116;32;33990;-62
2023/03/22 01:11:08;;;;;;;6.97;4.87;;;;;;;12.94;45.39;99465.38;4418577;32;33432;-64
2023/03/22 01:13:36;;;;;;;9.18;3.28;;;;;;;12.99;46.47;99460.44;4417789;32;31637;-65
2023/03/22 01:16:05;;;;;;;8.63;5.50;;;;;;;13.17;44.94;99466.84;4416418;32;34018;-62
2023/03/22 01:18:33;;;;;;;5.32;3.87;;;;;;;13.32;44.84;99456.56;4417863;32;32906;-62
2023/03/22 01:21:02;;;;;;;8.07;3.97;;;;;;;13.31;45.67;99462.94;4418698;32;33275;-62
2023/03/22 01:23:29;;;;;;;6.95;4.35;;;;;;;13.50;45.54;99452.22;4403954;32;31694;-61
2023/03/22 01:25:57;;;;;;;5.10;3.25;;;;;;;13.57;45.47;99460.56;4414465;32;34158;-61
2023/03/22 01:28:25;;;;;;;6.50;3.67;;;;;;;13.65;43.81;99462.56;4416890;32;33846;-64
2023/03/22 01:30:54;;;;;;;7.75;4.20;;;;;;;13.50;43.62;99459.44;4419210;32;33536;-61
2023/03/22 01:33:22;;;;;;;8.85;4.00;;;;;;;13.39;43.83;99451.50;4418831;32;33070;-61
2023/03/22 01:35:50;;;;;;;6.37;4.60;;;;;;;13.35;44.29;99460.81;4416396;32;33955;-64
2023/03/22 01:38:18;;;;;;;3.17;2.60;;;;;;;13.43;45.54;99445.69;4418687;32;33927;-64
2023/03/22 01:40:47;;;;;;;3.55;3.20;;;;;;;13.49;45.60;99449.69;4417134;32;34008;-61
2023/03/22 01:43:16;;;;;;;5.82;3.05;;;;;;;13.62;44.37;99454.78;4418683;32;33899;-62
2023/03/22 01:45:50;;;;;;;1.50;1.35;;;;;;;13.69;43.70;99456.75;4417815;32;33853;-62
2023/03/22 01:48:32;;;;;;;7.70;4.82;;;;;;;13.66;42.97;99456.19;4420104;32;33789;-68
2023/03/22 01:51:18;;;;;;;4.12;3.30;;;;;;;13.59;42.59;99450.53;4418426;32;34706;-61
2023/03/22 01:53:57;;;;;;;4.82;2.85;;;;;;;13.53;42.18;99456.47;4405919;32;33813;-63
2023/03/22 01:56:27;;;;;;;4.85;3.90;;;;;;;13.40;42.07;99456.72;4415845;32;33729;-62
2023/03/22 01:58:55;;;;;;;4.25;2.90;;;;;;;13.34;42.09;99459.97;4412142;32;35300;-61
2023/03/22 02:01:23;;;;;;;6.57;4.28;;;;;;;13.18;42.37;99459.63;4401932;32;34711;-59
2023/03/22 02:03:55;;;;;;;7.45;3.62;;;;;;;13.05;42.81;99457.19;4406018;32;33188;-61
2023/03/22 02:06:23;;;;;;;8.32;4.85;;;;;;;12.80;43.63;99462.06;4404351;32;34732;-60
2023/03/22 02:08:51;;;;;;;5.62;3.62;;;;;;;12.76;44.07;99466.00;4405677;32;33718;-62
2023/03/22 02:11:43;;;;;;;7.12;3.00;;;;;;;12.83;44.04;99460.94;4419342;32;33609;-63
2023/03/22 02:14:34;;;;;;;9.43;5.82;;;;;;;12.75;44.50;99463.47;4392012;32;31904;-60
2023/03/22 02:17:16;;;;;;;7.32;3.72;;;;;;;12.83;43.89;99463.62;4404046;32;32259;-61
2023/03/22 02:20:23;;;;;;;6.28;3.22;;;;;;;12.80;43.27;99470.13;4404591;32;34231;-61
2023/03/22 02:23:13;;;;;;;5.57;3.15;;;;;;;12.48;43.60;99474.78;4413881;32;34582;-61
2023/03/22 02:26:11;;;;;;;4.68;3.40;;;;;;;12.43;43.86;99475.19;4418433;32;34136;-62
2023/03/22 02:29:08;;;;;;;5.25;2.97;;;;;;;12.41;43.75;99476.31;4412864;32;33621;-63
2023/03/22 02:31:42;;;;;;;3.35;2.65;;;;;;;12.17;44.64;99485.50;4408667;32;34059;-65
2023/03/22 02:34:23;;;;;;;5.68;3.25;;;;;;;12.36;43.97;99484.78;4416022;32;33943;-63
2023/03/22 02:37:06;;;;;;;6.15;3.95;;;;;;;12.27;44.09;99483.72;4415990;32;34539;-62
2023/03/22 02:39:53;;;;;;;4.45;2.92;;;;;;;12.19;45.31;99475.47;4417051;32;34658;-63
2023/03/22 02:42:26;;;;;;;5.37;4.07;;;;;;;12.12;45.64;99479.66;4405694;32;34164;-64
2023/03/22 02:45:16;;;;;;;6.65;3.95;;;;;;;12.08;46.59;99481.75;4404399;32;33687;-62
2023/03/22 02:48:12;;;;;;;5.97;4.18;;;;;;;12.31;46.29;99482.47;4405026;32;33498;-63
2023/03/22 02:50:45;;;;;;;5.18;3.70;;;;;;;12.42;46.06;99483.37;4405812;32;33966;-66
2023/03/22 02:53:31;;;;;;;9.70;5.05;;;;;;;12.34;46.05;99474.16;4406219;32;33144;-63
2023/03/22 02:56:03;;;;;;;5.65;3.78;;;;;;;12.35;46.20;99473.16;4419421;32;33572;-63
2023/03/22 02:58:36;;;;;;;6.15;4.45;;;;;;;11.87;48.04;99476.38;4420998;32;33519;-66
2023/03/22 03:01:08;;;;;;;10.13;4.03;;;;;;;12.06;47.60;99464.09;4418048;32;33884;-62
2023/03/22 03:03:36;;;;;;;6.68;3.37;;;;;;;12.52;46.47;99462.78;4400681;32;34929;-64
2023/03/22 03:06:07;;;;;;;5.43;3.90;;;;;;;12.51;46.60;99464.62;4397087;32;33924;-65
2023/03/22 03:08:36;;;;;;;5.95;3.67;;;;;;;12.59;46.51;99467.50;4406370;32;33254;-63
2023/03/22 03:11:04;;;;;;;3.58;2.78;;;;;;;12.73;46.40;99468.97;4403585;32;33871;-65
2023/03/22 03:13:32;;;;;;;5.82;4.03;;;;;;;12.80;46.63;99471.97;4420352;32;33925;-64
2023/03/22 03:16:00;;;;;;;7.93;4.65;;;;;;;12.81;46.83;99474.53;4419983;32;33824;-63
2023/03/22 03:18:39;;;;;;;7.18;5.12;;;;;;;12.77;48.73;99465.00;4420190;32;33197;-65
2023/03/22 03:21:37;;;;;;;7.45;5.50;;;;;;;12.27;51.40;99472.97;4419819;32;33836;-64
2023/03/22 03:24:26;;;;;;;15.93;6.53;;;;;;;12.98;49.07;99469.50;4420378;32;33552;-62
2023/03/22 03:27:05;;;;;;;11.63;5.82;;;;;;;13.09;47.75;99480.13;4402959;32;34547;-63
2023/03/22 03:29:36;;;;;;;10.68;6.50;;;;;;;13.20;45.94;99493.44;4406402;32;34068;-63
2023/03/22 03:32:18;;;;;;;7.78;4.70;;;;;;;13.24;45.25;99496.72;4418925;32;33823;-63
2023/03/22 03:34:58;;;;;;;5.90;3.92;;;;;;;13.13;45.17;99489.63;4405573;32;33995;-62
2023/03/22 03:37:43;;;;;;;5.55;3.25;;;;;;;12.96;46.28;99501.84;4406731;32;34337;-66
2023/03/22 03:40:23;;;;;;;10.55;4.37;;;;;;;13.11;46.10;99502.34;4417531;32;32068;-63
2023/03/22 03:42:52;;;;;;;5.22;3.87;;;;;;;13.13;46.12;99497.69;4416169;32;33730;-63
2023/03/22 03:45:21;;;;;;;6.05;4.00;;;;;;;12.86;47.28;99494.75;4404108;32;34985;-63
2023/03/22 03:47:55;;;;;;;3.70;2.85;;;;;;;12.85;47.47;99499.28;4405069;32;33913;-67
2023/03/22 03:50:25;;;;;;;4.50;2.95;;;;;;;12.96;47.15;99509.06;4416634;32;33311;-65
2023/03/22 03:52:54;;;;;;;5.37;3.17;;;;;;;12.94;47.00;99498.47;4403637;32;33404;-64
2023/03/22 03:55:21;;;;;;;4.35;2.10;;;;;;;13.04;46.88;99501.19;4416270;32;34223;-63
2023/03/22 03:57:49;;;;;;;7.10;4.82;;;;;;;13.08;46.85;99499.91;4418312;32;34940;-64
2023/03/22 04:00:17;;;;;;;5.20;3.33;;;;;;;12.80;47.74;99490.75;4419736;32;33166;-64
2023/03/22 04:02:46;;;;;;;5.50;3.60;;;;;;;12.88;47.49;99496.31;4418470;32;34842;-63
2023/03/22 04:05:15;;;;;;;7.28;4.07;;;;;;;13.02;46.99;99490.56;4420533;32;35220;-63
2023/03/22 04:07:43;;;;;;;4.20;2.78;;;;;;;13.02;46.96;99501.31;4422512;32;34852;-63
2023/03/22 04:10:11;;;;;;;4.78;3.22;;;;;;;12.93;48.06;99509.34;4420049;32;33295;-64
2023/03/22 04:12:38;;;;;;;7.22;5.12;;;;;;;13.01;46.62;99501.47;4421632;32;33908;-63
2023/03/22 04:15:07;;;;;;;7.53;3.47;;;;;;;12.98;46.91;99502.56;4420038;32;33975;-63
2023/03/22 04:17:34;;;;;;;10.98;4.97;;;;;;;13.03;47.12;99502.16;4419437;32;33948;-64
2023/03/22 04:20:04;;;;;;;4.82;3.00;;;;;;;12.98;47.27;99504.41;4420372;32;33466;-62
2023/03/22 04:22:33;;;;;;;2.92;2.28;;;;;;;13.17;46.58;99504.47;4421635;32;34173;-67
2023/03/22 04:25:02;;;;;;;4.25;3.17;;;;;;;13.11;46.80;99491.59;4420359;32;33934;-62
2023/03/22 04:27:30;;;;;;;6.03;4.45;;;;;;;13.18;46.95;99491.88;4421151;32;34139;-62
2023/03/22 04:29:59;;;;;;;5.37;3.40;;;;;;;13.13;47.04;99503.06;4421276;32;33753;-63
2023/03/22 04:32:29;;;;;;;7.07;3.87;;;;;;;13.15;47.13;99513.66;4421892;32;32308;-65
2023/03/22 04:34:57;;;;;;;4.62;2.72;;;;;;;13.17;46.99;99503.63;4422452;32;33761;-65
2023/03/22 04:37:25;;;;;;;4.97;3.00;;;;;;;12.51;48.59;99502.22;4422671;32;34804;-62
2023/03/22 04:39:54;;;;;;;5.35;3.03;;;;;;;12.19;49.71;99499.59;4420573;32;32139;-62
2023/03/22 04:42:22;;;;;;;3.42;2.85;;;;;;;12.34;49.83;99505.50;4418907;32;33797;-62
2023/03/22 04:44:51;;;;;;;3.37;2.72;;;;;;;12.55;49.68;99508.16;4421136;32;32863;-66
2023/03/22 04:47:19;;;;;;;9.30;3.70;;;;;;;12.75;49.29;99506.44;4420346;32;33863;-64
2023/03/22 04:49:46;;;;;;;10.65;4.80;;;;;;;12.79;49.26;99492.59;4420932;32;32914;-64
2023/03/22 04:52:14;;;;;;;5.90;3.42;;;;;;;12.91;48.81;99504.09;4420085;32;34799;-62
2023/03/22 04:54:44;;;;;;;4.32;3.37;;;;;;;12.90;48.61;99506.91;4420599;32;33835;-66
2023/03/22 04:57:11;;;;;;;5.50;3.20;;;;;;;13.08;47.79;99517.88;4419125;32;34891;-63
2023/03/22 04:59:39;;;;;;;7.53;4.93;;;;;;;13.12;47.41;99513.94;4420520;32;34532;-62
2023/03/22 05:02:07;;;;;;;5.32;3.47;;;;;;;13.03;47.47;99519.16;4415327;32;35044;-62
2023/03/22 05:04:35;;;;;;;7.30;4.43;;;;;;;12.99;47.83;99514.16;4417301;32;33648;-62
2023/03/22 05:07:03;;;;;;;7.00;3.60;;;;;;;13.16;47.07;99520.72;4419021;32;33972;-66
2023/03/22 05:09:32;;;;;;;4.25;3.53;;;;;;;13.01;47.79;99520.25;4412553;32;33255;-63
2023/03/22 05:12:00;;;;;;;6.82;3.70;;;;;;;13.09;48.07;99516.88;4419575;32;33791;-62
2023/03/22 05:14:27;;;;;;;9.18;3.58;;;;;;;13.24;47.61;99521.78;4412891;32;32725;-62
2023/03/22 05:16:55;;;;;;;5.10;3.33;;;;;;;13.24;47.73;99516.41;4417521;32;32556;-65
2023/03/22 05:19:23;;;;;;;6.60;4.32;;;;;;;13.22;48.18;99529.09;4421357;32;33224;-62
2023/03/22 05:21:56;;;;;;;5.60;3.72;;;;;;;13.31;48.08;99519.38;4420682;32;33874;-62
2023/03/22 05:24:25;;;;;;;6.50;3.95;;;;;;;13.37;47.68;99515.31;4422229;32;33815;-64
2023/03/22 05:26:52;;;;;;;14.00;3.72;;;;;;;13.25;47.90;99514.56;4421340;32;33653;-63
2023/03/22 05:29:21;;;;;;;6.03;4.18;;;;;;;13.36;47.56;99524.38;4420335;32;34153;-62
2023/03/22 05:31:49;;;;;;;5.28;3.80;;;;;;;13.28;48.04;99543.84;4419606;32;33467;-62
2023/03/22 05:34:19;;;;;;;4.93;2.97;;;;;;;13.52;47.37;99541.66;4421127;32;33684;-62
2023/03/22 05:36:46;;;;;;;6.78;4.03;;;;;;;13.24;48.12;99537.91;4421123;32;34933;-63
2023/03/22 05:39:15;;;;;;;9.50;5.00;;;;;;;13.38;48.01;99525.06;4420564;32;33354;-63
2023/03/22 05:41:43;;;;;;;8.25;3.85;;;;;;;13.60;47.47;99530.19;4419956;32;33845;-64
2023/03/22 05:44:11;;;;;;;7.97;4.18;;;;;;;13.73;47.29;99520.03;4417998;32;34012;-64
2023/03/22 05:46:39;;;;;;;4.05;3.12;;;;;;;13.73;47.44;99527.25;4413540;32;33796;-64
2023/03/22 05:49:10;;;;;;;7.80;4.18;;;;;;;13.79;47.27;99537.44;4420826;32;31703;-63
2023/03/22 05:51:41;;;;;;;8.60;4.68;;;;;;;13.62;47.93;99544.37;4420640;32;33616;-66
2023/03/22 05:54:09;;;;;;;6.47;3.85;;;;;;;13.77;47.74;99538.56;4420467;32;33881;-63
2023/03/22 05:56:39;;;;;;;7.90;4.47;;;;;;;14.09;46.76;99540.97;4418179;32;33641;-64
2023/03/22 05:59:06;;;;;;;4.70;2.85;;;;;;;14.01;47.50;99541.72;4419284;32;34382;-64
2023/03/22 06:01:34;;;;;;;5.12;3.90;;;;;;;14.21;47.11;99537.16;4417699;32;33694;-65
2023/03/22 06:04:03;;;;;;;9.25;3.85;;;;;;;14.31;46.65;99542.53;4419820;32;34145;-67
2023/03/22 06:06:30;;;;;;;5.65;3.10;;;;;;;14.52;46.16;99545.94;4416833;32;34027;-62
2023/03/22 06:08:58;;;;;;;8.35;5.20;;;;;;;14.65;46.00;99556.41;4420909;32;33523;-63
2023/03/22 06:11:43;;;;;;;8.20;4.72;;;;;;;14.75;45.70;99554.53;4418226;32;32671;-63
2023/03/22 06:14:10;;;;;;;11.00;6.30;;;;;;;14.82;45.98;99560.19;4420648;32;34017;-63
2023/03/22 06:16:39;;;;;;;6.18;4.78;;;;;;;14.94;45.80;99553.63;4419331;32;34257;-65
2023/03/22 06:19:07;;;;;;;6.00;3.87;;;;;;;14.79;46.08;99557.78;4421168;32;33024;-63
2023/03/22 06:21:35;;;;;;;5.50;4.05;;;;;;;14.85;46.12;99554.50;4420065;32;34683;-68
2023/03/22 06:24:03;;;;;;;4.87;3.97;;;;;;;15.04;45.71;99551.75;4423219;32;34885;-62
2023/03/22 06:26:30;;;;;;;6.95;4.87;;;;;;;15.14;45.61;99566.03;4421141;32;34983;-63
2023/03/22 06:28:58;;;;;;;7.25;5.80;;;;;;;15.05;46.57;99563.38;4420804;32;33613;-63
2023/03/22 06:31:26;;;;;;;7.03;4.37;;;;;;;15.04;46.54;99569.75;4421651;32;34967;-64
2023/03/22 06:33:54;;;;;;;5.95;4.72;;;;;;;15.37;45.51;99571.88;4415786;32;34296;-64
2023/03/22 06:36:22;;;;;;;7.75;4.47;;;;;;;15.57;45.01;99572.63;4414916;32;34667;-66
2023/03/22 06:38:50;;;;;;;8.75;5.30;;;;;;;15.25;45.89;99564.13;4422381;32;32213;-63
2023/03/22 06:41:18;;;;;;;7.20;3.55;;;;;;;15.67;44.80;99569.06;4420924;32;33890;-63
2023/03/22 06:43:46;;;;;;;8.20;5.20;;;;;;;15.76;44.93;99574.41;4422472;32;35465;-63
2023/03/22 06:46:19;;;;;;;6.07;3.95;;;;;;;15.81;45.04;99573.94;4420052;32;35110;-66
2023/03/22 06:48:47;;;;;;;7.85;4.68;;;;;;;15.95;44.74;99576.09;4417759;32;33060;-64
2023/03/22 06:51:14;;;;;;;9.15;6.25;;;;;;;16.01;44.39;99570.09;4421631;32;33651;-63
2023/03/22 06:53:42;;;;;;;8.05;5.30;;;;;;;15.93;44.68;99569.19;4422092;32;34879;-64
2023/03/22 06:56:10;;;;;;;7.43;4.53;;;;;;;15.91;44.61;99571.16;4420252;32;34564;-63
2023/03/22 06:58:37;;;;;;;27.25;4.80;;;;;;;16.17;44.03;99563.16;4422821;32;33526;-67
2023/03/22 07:01:05;;;;;;;11.10;4.47;;;;;;;15.98;44.61;99572.25;4420709;32;33818;-63
2023/03/22 07:03:34;;;;;;;10.75;5.50;;;;;;;15.84;45.43;99579.03;4418208;32;33955;-64
2023/03/22 07:06:04;;;;;;;9.18;5.62;;;;;;;16.00;45.69;99592.69;4420781;32;33631;-67
2023/03/22 07:08:32;;;;;;;8.35;5.37;;;;;;;16.23;44.82;99590.37;4421383;32;34120;-64
2023/03/22 07:11:00;;;;;;;8.52;3.92;;;;;;;16.17;44.92;99587.44;4420229;32;33643;-63
2023/03/22 07:13:28;;;;;;;9.05;4.93;;;;;;;16.18;44.93;99586.44;4422770;32;33745;-64
2023/03/22 07:15:57;;;;;;;7.20;4.12;;;;;;;15.91;45.51;99588.22;4421323;32;35646;-64
2023/03/22 07:18:27;;;;;;;6.97;4.68;;;;;;;16.28;44.05;99582.69;4420308;32;33207;-67
2023/03/22 07:20:54;;;;;;;9.45;4.82;;;;;;;15.92;45.09;99592.62;4420206;32;33999;-67
2023/03/22 07:23:22;;;;;;;8.68;4.28;;;;;;;16.16;44.79;99591.16;4422539;32;35013;-64
2023/03/22 07:25:50;;;;;;;6.12;3.78;;;;;;;16.22;44.49;99588.69;4421750;32;33712;-65
2023/03/22 07:28:18;;;;;;;7.47;4.40;;;;;;;16.32;44.10;99591.31;4422257;32;34394;-64
2023/03/22 07:30:45;;;;;;;15.75;6.87;;;;;;;16.39;44.01;99596.94;4422134;32;32262;-66
2023/03/22 07:33:14;;;;;;;17.45;4.32;;;;;;;16.28;43.66;99595.34;4420883;32;33596;-67
2023/03/22 07:35:42;;;;;;;4.55;2.95;;;;;;;16.49;43.13;99587.72;4422927;32;34762;-64
2023/03/22 07:38:10;;;;;;;5.70;4.00;;;;;;;16.54;43.04;99589.97;4420450;32;32313;-67
2023/03/22 07:40:38;;;;;;;6.32;3.90;;;;;;;16.35;43.40;99596.41;4422979;32;32753;-64
2023/03/22 07:43:06;;;;;;;8.10;4.85;;;;;;;16.49;43.31;99601.25;4422306;32;34016;-68
2023/03/22 07:45:34;;;;;;;7.15;4.57;;;;;;;16.10;43.85;99599.88;4422046;32;34266;-64
2023/03/22 07:48:04;;;;;;;7.82;4.70;;;;;;;16.43;43.77;99576.72;4421244;32;33023;-65
2023/03/22 07:50:33;;;;;;;5.60;3.92;;;;;;;16.66;42.75;99590.56;4422114;32;32055;-67
2023/03/22 07:53:02;;;;;;;6.65;3.67;;;;;;;16.34;42.73;99588.44;4421798;32;34039;-69
2023/03/22 07:55:30;;;;;;;5.90;3.75;;;;;;;16.30;42.68;99594.16;4422898;32;32377;-64
2023/03/22 07:57:58;;;;;;;6.65;3.75;;;;;;;16.69;41.94;99591.13;4422186;32;33434;-66
2023/03/22 08:00:25;;;;;;;5.12;3.42;;;;;;;15.94;43.30;99587.91;4422573;32;34272;-64
2023/03/22 08:02:54;;;;;;;5.80;3.30;;;;;;;16.16;42.70;99583.91;4422301;32;35005;-66
2023/03/22 08:05:24;;;;;;;9.30;4.37;;;;;;;15.99;42.92;99580.22;4420828;32;34023;-67
2023/03/22 08:07:55;;;;;;;7.22;4.15;;;;;;;16.12;42.96;99584.38;4422250;32;32753;-66
2023/03/22 08:10:23;;;;;;;8.05;4.35;;;;;;;15.84;44.09;99579.03;4421480;32;33701;-64
2023/03/22 08:12:50;;;;;;;7.20;4.18;;;;;;;16.33;43.15;99589.44;4421965;32;33954;-66
2023/03/22 08:15:19;;;;;;;6.70;3.78;;;;;;;16.67;42.05;99585.00;4422773;32;33846;-64
2023/03/22 08:17:49;;;;;;;5.90;4.25;;;;;;;16.37;42.53;99593.53;4421985;32;33332;-64
2023/03/22 08:20:17;;;;;;;8.35;3.62;;;;;;;16.70;41.85;99592.81;4422306;32;33807;-64
2023/03/22 08:22:45;;;;;;;6.15;3.45;;;;;;;16.92;41.49;99596.87;4419379;32;33896;-65
2023/03/22 08:25:15;;;;;;;5.37;3.22;;;;;;;16.75;42.09;99592.34;4417374;32;33479;-64
2023/03/22 08:27:43;;;;;;;10.13;3.85;;;;;;;16.42;42.56;99594.78;4419848;32;33382;-65
2023/03/22 08:30:11;;;;;;;11.23;5.18;;;;;;;16.91;41.99;99597.87;4421396;32;33818;-64
2023/03/22 08:32:39;;;;;;;7.18;5.32;;;;;;;16.50;42.57;99599.38;4420947;32;34637;-65
2023/03/22 08:35:08;;;;;;;9.95;5.07;;;;;;;17.02;41.60;99587.81;4420600;32;34036;-65
2023/03/22 08:37:35;;;;;;;13.73;5.40;;;;;;;17.17;41.31;99588.91;4422594;32;33450;-67
2023/03/22 08:40:06;;;;;;;6.43;3.25;;;;;;;17.34;41.07;99595.25;4421481;32;33813;-64
2023/03/22 08:42:35;;;;;;;8.85;5.30;;;;;;;17.45;40.76;99603.91;4422464;32;35471;-65
2023/03/22 08:45:03;;;;;;;9.07;4.53;;;;;;;17.68;40.46;99603.34;4421435;32;34587;-63
2023/03/22 08:47:31;;;;;;;4.97;3.50;;;;;;;17.53;39.67;99608.53;4421154;32;33106;-66
2023/03/22 08:49:59;;;;;;;10.00;4.82;;;;;;;17.58;40.03;99605.31;4420935;32;33429;-68
2023/03/22 08:52:27;;;;;;;5.57;2.92;;;;;;;17.47;39.58;99598.34;4422176;32;35142;-67
2023/03/22 08:54:55;;;;;;;8.32;3.67;;;;;;;17.52;39.60;99598.69;4422723;32;34766;-64
2023/03/22 08:57:30;;;;;;;7.87;5.28;;;;;;;17.70;39.21;99596.75;4421947;32;31832;-64
2023/03/22 08:59:59;;;;;;;7.40;3.95;;;;;;;17.30;40.08;99596.56;4421268;32;35153;-64
2023/03/22 09:02:27;;;;;;;4.53;2.80;;;;;;;16.88;41.01;99597.34;4420349;32;34038;-64
2023/03/22 09:04:55;;;;;;;8.13;4.07;;;;;;;17.05;40.79;99591.03;4420905;32;33815;-65
2023/03/22 09:07:23;;;;;;;7.90;4.50;;;;;;;16.99;40.78;99594.38;4420256;32;33284;-65
2023/03/22 09:09:52;;;;;;;6.10;3.65;;;;;;;16.29;42.26;99600.56;4422418;32;33478;-62
2023/03/22 09:12:20;;;;;;;8.27;4.05;;;;;;;16.70;41.73;99605.47;4421383;32;33977;-64
2023/03/22 09:14:48;;;;;;;6.97;4.53;;;;;;;17.20;40.78;99602.09;4422339;32;35053;-63
2023/03/22 09:17:17;;;;;;;11.82;4.70;;;;;;;17.39;40.68;99601.84;4421192;32;33438;-66
2023/03/22 09:19:47;;;;;;;9.82;4.55;;;;;;;16.77;41.88;99615.53;4419874;32;33849;-68
2023/03/22 09:22:15;;;;;;;13.90;5.90;;;;;;;16.80;41.62;99606.25;4420520;32;35380;-64
2023/03/22 09:24:44;;;;;;;16.37;6.37;;;;;;;16.58;42.16;99599.47;4419728;32;33021;-64
2023/03/22 09:27:12;;;;;;;9.85;5.07;;;;;;;16.35;42.45;99599.09;4417780;32;33488;-64
2023/03/22 09:29:39;;;;;;;7.57;5.82;;;;;;;16.59;42.12;99603.00;4417441;32;33845;-64
2023/03/22 09:32:07;;;;;;;8.00;4.25;;;;;;;16.40;42.25;99601.31;4421899;32;33776;-64
2023/03/22 09:34:36;;;;;;;5.68;3.42;;;;;;;16.74;42.16;99607.69;4419464;32;33551;-63
2023/03/22 09:37:03;;;;;;;10.55;4.05;;;;;;;17.10;41.37;99594.09;4419977;32;33771;-63
2023/03/22 09:39:32;;;;;;;5.65;3.58;;;;;;;16.91;41.34;99591.63;4417243;32;34835;-68
2023/03/22 09:42:03;;;;;;;8.82;5.50;;;;;;;16.63;42.12;99594.44;4419547;32;34916;-67
2023/03/22 09:44:42;;;;;;;7.57;5.03;;;;;;;16.62;42.25;99591.88;4407099;32;34504;-66
2023/03/22 09:47:17;;;;;;;7.43;4.57;;;;;;;16.92;41.80;99591.47;4418086;32;32262;-65
2023/03/22 09:49:47;;;;;;;7.78;4.55;;;;;;;16.51;42.77;99595.69;4421387;32;35014;-64
2023/03/22 09:52:21;;;;;;;11.57;5.05;;;;;;;16.53;42.48;99586.44;4419096;32;35071;-66
2023/03/22 09:54:49;;;;;;;9.07;5.93;;;;;;;16.94;42.04;99585.91;4420981;32;33665;-63
2023/03/22 09:57:32;;;;;;;5.53;4.30;;;;;;;17.25;41.38;99586.25;4420790;32;33627;-62
2023/03/22 10:00:17;;;;;;;9.23;5.87;;;;;;;17.33;40.92;99590.84;4416708;32;35058;-63
2023/03/22 10:02:45;;;;;;;9.00;4.85;;;;;;;16.89;41.69;99591.78;4417744;32;34082;-62
2023/03/22 10:05:24;;;;;;;9.38;5.68;;;;;;;16.63;42.61;99594.44;4419190;32;33579;-67
2023/03/22 10:07:55;;;;;;;11.63;6.30;;;;;;;16.58;42.35;99595.91;4405233;32;32952;-64
2023/03/22 10:10:23;;;;;;;13.02;6.10;;;;;;;16.60;42.54;99591.22;4419641;32;34622;-63
2023/03/22 10:13:06;;;;;;;7.07;4.47;;;;;;;16.83;42.06;99584.31;4417309;32;33806;-65
2023/03/22 10:15:39;;;;;;;7.50;4.47;;;;;;;17.08;41.52;99585.31;4416383;32;34250;-63
2023/03/22 10:18:10;;;;;;;9.35;4.43;;;;;;;17.21;41.27;99587.59;4422680;32;33366;-67
2023/03/22 10:20:58;;;;;;;7.00;4.62;;;;;;;17.41;41.05;99582.78;4409387;32;35295;-63
2023/03/22 10:23:29;;;;;;;5.90;4.03;;;;;;;17.38;40.88;99586.66;4409771;32;33864;-64
2023/03/22 10:25:57;;;;;;;6.35;3.80;;;;;;;17.27;41.25;99586.94;4420053;32;33941;-65
2023/03/22 10:28:37;;;;;;;7.18;4.00;;;;;;;17.02;41.80;99583.25;4395453;32;33503;-65
2023/03/22 10:31:05;;;;;;;12.05;6.05;;;;;;;16.88;42.19;99575.72;4393731;32;33869;-65
2023/03/22 10:33:49;;;;;;;5.78;3.22;;;;;;;16.97;42.05;99581.00;4406763;32;35275;-62
2023/03/22 10:36:19;;;;;;;9.48;4.85;;;;;;;17.33;41.29;99578.16;4420276;32;33508;-62
2023/03/22 10:38:49;;;;;;;8.68;5.10;;;;;;;17.21;41.69;99582.19;4401618;32;33259;-65
2023/03/22 10:41:18;;;;;;;10.55;4.97;;;;;;;17.08;42.16;99587.16;4400587;32;33520;-63
2023/03/22 10:43:52;;;;;;;9.93;5.28;;;;;;;17.30;41.56;99575.78;4391271;32;33783;-65
2023/03/22 10:46:23;;;;;;;8.13;5.18;;;;;;;17.44;41.44;99577.88;4414933;32;33765;-62
2023/03/22 10:48:54;;;;;;;10.88;4.90;;;;;;;17.15;41.80;99580.97;4400910;32;34498;-62
2023/03/22 10:51:49;;;;;;;7.80;5.20;;;;;;;16.77;42.80;99577.69;4408117;32;33515;-65
2023/03/22 10:54:18;;;;;;;8.15;4.93;;;;;;;17.13;41.81;99568.59;4398319;32;32699;-64
2023/03/22 10:56:45;;;;;;;11.27;6.65;;;;;;;17.23;42.12;99574.72;4395949;32;33938;-62
2023/03/22 10:59:40;;;;;;;8.85;6.18;;;;;;;16.83;43.06;99573.50;4405015;32;33317;-65
2023/03/22 11:02:20;;;;;;;17.40;7.22;;;;;;;16.96;42.65;99567.66;4413202;32;33687;-63
2023/03/22 11:04:54;;;;;;;11.25;6.03;;;;;;;16.72;43.59;99571.00;4410922;32;34981;-62
2023/03/22 11:07:45;;;;;;;10.27;6.60;;;;;;;17.21;42.84;99566.78;4414416;32;33637;-65
2023/03/22 11:10:26;;;;;;;7.82;5.20;;;;;;;17.25;42.15;99567.31;4402864;32;33705;-62
2023/03/22 11:13:16;;;;;;;7.28;5.03;;;;;;;17.55;41.74;99557.78;4394180;32;34619;-63
2023/03/22 11:15:53;;;;;;;6.32;4.07;;;;;;;17.75;41.41;99558.34;4409160;32;35173;-62
2023/03/22 11:18:21;;;;;;;10.60;5.30;;;;;;;17.68;41.59;99557.31;4400280;32;35501;-65
2023/03/22 11:21:10;;;;;;;6.60;3.95;;;;;;;17.89;40.94;99556.91;4413153;32;34014;-63
2023/03/22 11:23:40;;;;;;;7.57;4.80;;;;;;;17.95;40.55;99537.28;4412712;32;32643;-63
2023/03/22 11:26:10;;;;;;;9.77;6.03;;;;;;;18.04;40.76;99541.72;4402065;32;35105;-66
2023/03/22 11:28:49;;;;;;;6.95;4.85;;;;;;;18.24;40.37;99534.09;4418349;32;34570;-65
2023/03/22 11:31:20;;;;;;;7.12;4.85;;;;;;;17.50;41.29;99537.66;4410806;32;31368;-63
2023/03/22 11:33:55;;;;;;;17.00;6.80;;;;;;;18.07;40.61;99529.66;4408534;32;33877;-63
2023/03/22 11:36:24;;;;;;;20.45;7.28;;;;;;;18.39;40.15;99532.41;4409699;32;32634;-63
2023/03/22 11:39:01;;;;;;;13.95;7.95;;;;;;;18.45;39.90;99525.44;4414087;32;33556;-63
2023/03/22 11:41:30;;;;;;;10.68;6.57;;;;;;;18.77;39.33;99518.31;4414953;32;34280;-63
2023/03/22 11:44:02;;;;;;;11.65;6.95;;;;;;;18.89;39.34;99519.63;4405231;32;33241;-62
2023/03/22 11:46:30;;;;;;;7.30;5.37;;;;;;;18.84;39.25;99512.03;4404948;32;35248;-63
2023/03/22 11:49:01;;;;;;;9.55;6.07;;;;;;;18.09;40.26;99512.25;4406882;32;185815;-66
2023/03/22 11:51:32;;;;;;;11.20;7.62;;;;;;;18.51;39.57;99507.66;4412771;32;33541;-63